Time;durP1;ratioP1;P1;durP2;ratioP2;P2;SDS_P1;SDS_P2;PMS_P1;PMS_P2;Temp;Humidity;BMP_temperature;BMP_pressure;BME280_temperature;BME280_humidity;BME280_pressure;Samples;Min_cycle;Max_cycle;Signal;HPM_P1;HPM_P2
2021/08/08 00:01:06;;;;;;;14.27;8.23;;;;;;;;;;4900663;29;20157;-82
2021/08/08 00:03:31;;;;;;;11.00;6.68;;;;;;;;;;4918620;29;20063;-82
2021/08/08 00:05:57;;;;;;;14.20;5.82;;;;;;;;;;4918821;29;20052;-82
2021/08/08 00:08:24;;;;;;;11.80;4.75;;;;;;;;;;4916943;29;20047;-82
2021/08/08 00:10:50;;;;;;;10.18;5.05;;;;;;;;;;4901511;29;20123;-82
2021/08/08 00:13:15;;;;;;;10.93;4.57;;;;;;;;;;4920490;29;20074;-81
2021/08/08 00:15:41;;;;;;;9.57;4.25;;;;;;;;;;4922350;28;20059;-83
2021/08/08 00:18:06;;;;;;;9.13;4.20;;;;;;;;;;4918434;29;20035;-83
2021/08/08 00:20:32;;;;;;;7.10;4.10;;;;;;;;;;4941326;29;20038;-81
2021/08/08 00:22:58;;;;;;;10.65;4.50;;;;;;;;;;4940102;29;20032;-82
2021/08/08 00:25:24;;;;;;;11.18;4.85;;;;;;;;;;4927080;29;20075;-82
2021/08/08 00:27:49;;;;;;;9.90;4.22;;;;;;;;;;4918607;29;20044;-82
2021/08/08 00:30:15;;;;;;;6.65;4.05;;;;;;;;;;4904363;29;20516;-82
2021/08/08 00:32:41;;;;;;;6.65;4.45;;;;;;;;;;4918715;29;20040;-82
2021/08/08 00:35:07;;;;;;;6.72;3.88;;;;;;;;;;4921002;29;20068;-83
2021/08/08 00:37:32;;;;;;;9.05;3.85;;;;;;;;;;4916730;29;20403;-82
2021/08/08 00:39:58;;;;;;;4.82;4.10;;;;;;;;;;4916609;29;20032;-83
2021/08/08 00:42:23;;;;;;;8.93;4.05;;;;;;;;;;4916631;29;20499;-83
2021/08/08 00:44:49;;;;;;;5.85;3.88;;;;;;;;;;4916436;29;20070;-82
2021/08/08 00:47:15;;;;;;;6.53;3.83;;;;;;;;;;4916084;29;20376;-82
2021/08/08 00:49:40;;;;;;;5.75;4.00;;;;;;;;;;4916400;29;20547;-83
2021/08/08 00:52:06;;;;;;;6.97;3.70;;;;;;;;;;4916326;29;20118;-82
2021/08/08 00:54:32;;;;;;;8.20;3.85;;;;;;;;;;4916386;29;20501;-82
2021/08/08 00:56:57;;;;;;;8.07;4.60;;;;;;;;;;4916615;29;20032;-82
2021/08/08 00:59:23;;;;;;;10.35;4.20;;;;;;;;;;4915749;29;20095;-82
2021/08/08 01:01:49;;;;;;;9.63;4.10;;;;;;;;;;4916720;29;20027;-82
2021/08/08 01:04:20;;;;;;;6.78;3.80;;;;;;;;;;4915958;29;20439;-83
2021/08/08 01:07:01;;;;;;;6.57;3.58;;;;;;;;;;4916491;29;20122;-83
2021/08/08 01:09:27;;;;;;;9.07;3.95;;;;;;;;;;4916347;29;20039;-82
2021/08/08 01:11:52;;;;;;;9.27;4.30;;;;;;;;;;4916257;29;20032;-83
2021/08/08 01:14:20;;;;;;;10.15;4.22;;;;;;;;;;4915850;29;20483;-81
2021/08/08 01:16:46;;;;;;;7.53;3.80;;;;;;;;;;4911345;29;20062;-82
2021/08/08 01:19:15;;;;;;;7.97;3.95;;;;;;;;;;4921683;29;20039;-83
2021/08/08 01:21:41;;;;;;;8.30;4.25;;;;;;;;;;4917039;29;20039;-82
2021/08/08 01:24:07;;;;;;;6.30;3.58;;;;;;;;;;4915542;29;20079;-82
2021/08/08 01:26:34;;;;;;;12.10;4.05;;;;;;;;;;4898370;29;20039;-82
2021/08/08 01:29:00;;;;;;;6.25;3.97;;;;;;;;;;4916031;29;20486;-81
2021/08/08 01:31:26;;;;;;;5.70;4.35;;;;;;;;;;4916016;29;20040;-82
2021/08/08 01:33:51;;;;;;;7.82;4.18;;;;;;;;;;4915238;29;20515;-82
2021/08/08 01:36:17;;;;;;;10.30;4.65;;;;;;;;;;4915819;29;20087;-82
2021/08/08 01:38:45;;;;;;;13.38;4.93;;;;;;;;;;4915573;29;20039;-81
2021/08/08 01:41:12;;;;;;;7.47;4.55;;;;;;;;;;4915441;29;20491;-82
2021/08/08 01:43:40;;;;;;;8.63;4.30;;;;;;;;;;4915616;29;20032;-82
2021/08/08 01:46:06;;;;;;;11.48;5.10;;;;;;;;;;4903893;29;20538;-82
2021/08/08 01:48:33;;;;;;;14.02;5.00;;;;;;;;;;4915649;29;20036;-82
2021/08/08 01:50:59;;;;;;;10.73;4.40;;;;;;;;;;4915430;29;20156;-84
2021/08/08 01:53:26;;;;;;;7.85;4.35;;;;;;;;;;4915664;29;20032;-82
2021/08/08 01:55:51;;;;;;;10.25;5.30;;;;;;;;;;4915623;29;20020;-83
2021/08/08 01:58:17;;;;;;;7.90;4.38;;;;;;;;;;4916251;29;20032;-81
2021/08/08 02:00:42;;;;;;;7.35;4.18;;;;;;;;;;4919452;29;20506;-83
2021/08/08 02:03:09;;;;;;;12.63;4.82;;;;;;;;;;4919235;29;20087;-81
2021/08/08 02:05:35;;;;;;;6.38;4.32;;;;;;;;;;4919252;29;20391;-82
2021/08/08 02:08:01;;;;;;;14.23;5.60;;;;;;;;;;4919401;29;20495;-82
2021/08/08 02:10:26;;;;;;;15.05;5.25;;;;;;;;;;4918944;29;20035;-82
2021/08/08 02:12:52;;;;;;;15.63;6.15;;;;;;;;;;4919361;29;20440;-82
2021/08/08 02:15:18;;;;;;;12.88;5.57;;;;;;;;;;4919610;29;20024;-83
2021/08/08 02:17:43;;;;;;;13.57;5.68;;;;;;;;;;4918307;29;20168;-82
2021/08/08 02:20:11;;;;;;;14.52;6.07;;;;;;;;;;4919316;29;20031;-82
2021/08/08 02:22:37;;;;;;;17.77;6.25;;;;;;;;;;4920355;29;20040;-82
2021/08/08 02:25:03;;;;;;;11.20;6.20;;;;;;;;;;4901647;29;20395;-82
2021/08/08 02:27:29;;;;;;;16.83;5.82;;;;;;;;;;4925939;29;20035;-82
2021/08/08 02:29:54;;;;;;;17.52;6.07;;;;;;;;;;4918346;29;20036;-83
2021/08/08 02:32:21;;;;;;;15.20;5.43;;;;;;;;;;4918961;29;20031;-83
2021/08/08 02:34:46;;;;;;;15.45;4.88;;;;;;;;;;4918523;29;20094;-81
2021/08/08 02:37:12;;;;;;;10.98;4.47;;;;;;;;;;4919160;29;20106;-81
2021/08/08 02:39:38;;;;;;;10.93;3.88;;;;;;;;;;4919171;29;20024;-82
2021/08/08 02:42:03;;;;;;;7.68;3.92;;;;;;;;;;4918353;29;20038;-82
2021/08/08 02:44:29;;;;;;;11.98;4.15;;;;;;;;;;4901676;29;20115;-82
2021/08/08 02:46:54;;;;;;;14.95;4.63;;;;;;;;;;4918468;29;20032;-83
2021/08/08 02:49:20;;;;;;;15.63;4.65;;;;;;;;;;4918997;29;20038;-82
2021/08/08 02:51:46;;;;;;;10.95;4.88;;;;;;;;;;4918753;29;20062;-82
2021/08/08 02:54:15;;;;;;;11.77;5.38;;;;;;;;;;4900993;29;20032;-82
2021/08/08 02:56:41;;;;;;;13.75;5.00;;;;;;;;;;4881114;29;20040;-83
2021/08/08 02:59:07;;;;;;;14.88;6.43;;;;;;;;;;4904831;29;20111;-80
2021/08/08 03:01:33;;;;;;;16.48;4.53;;;;;;;;;;4901058;29;20066;-82
2021/08/08 03:03:58;;;;;;;14.65;5.70;;;;;;;;;;4918331;29;20055;-82
2021/08/08 03:06:24;;;;;;;11.13;5.18;;;;;;;;;;4918096;29;20261;-82
2021/08/08 03:08:50;;;;;;;15.68;6.43;;;;;;;;;;4917981;29;20039;-81
2021/08/08 03:11:15;;;;;;;10.18;4.88;;;;;;;;;;4918189;29;20087;-81
2021/08/08 03:13:41;;;;;;;13.10;6.00;;;;;;;;;;4925414;29;20107;-82
2021/08/08 03:16:06;;;;;;;17.45;7.25;;;;;;;;;;4918345;29;20039;-83
2021/08/08 03:18:32;;;;;;;12.38;7.05;;;;;;;;;;4917383;29;20092;-82
2021/08/08 03:20:58;;;;;;;19.08;8.02;;;;;;;;;;4918009;29;20035;-82
2021/08/08 03:23:24;;;;;;;20.40;10.25;;;;;;;;;;4917628;29;20036;-82
2021/08/08 03:25:49;;;;;;;16.42;10.38;;;;;;;;;;4917633;29;20118;-82
2021/08/08 03:28:15;;;;;;;15.20;9.95;;;;;;;;;;4917915;29;20414;-82
2021/08/08 03:30:40;;;;;;;19.45;10.48;;;;;;;;;;4917616;29;20028;-82
2021/08/08 03:33:06;;;;;;;24.85;11.45;;;;;;;;;;4918121;29;20047;-82
2021/08/08 03:35:31;;;;;;;26.45;11.57;;;;;;;;;;4918103;29;20032;-80
2021/08/08 03:37:57;;;;;;;17.98;10.40;;;;;;;;;;4917433;29;20036;-83
2021/08/08 03:40:22;;;;;;;16.73;9.23;;;;;;;;;;4917980;29;20118;-83
2021/08/08 03:42:48;;;;;;;15.75;7.05;;;;;;;;;;4917477;29;20095;-82
2021/08/08 03:45:14;;;;;;;14.40;7.47;;;;;;;;;;4900843;29;20024;-82
2021/08/08 03:47:39;;;;;;;12.82;5.22;;;;;;;;;;4919429;29;20039;-82
2021/08/08 03:50:05;;;;;;;8.95;4.80;;;;;;;;;;4916999;29;20534;-82
2021/08/08 03:52:31;;;;;;;11.48;5.00;;;;;;;;;;4917069;29;20054;-83
2021/08/08 03:54:56;;;;;;;8.38;5.22;;;;;;;;;;4921254;29;20079;-83
2021/08/08 03:57:22;;;;;;;15.05;5.22;;;;;;;;;;4921944;29;20079;-83
2021/08/08 03:59:47;;;;;;;8.13;4.63;;;;;;;;;;4919221;29;20428;-83
2021/08/08 04:02:13;;;;;;;12.68;4.95;;;;;;;;;;4917641;29;20485;-83
2021/08/08 04:04:38;;;;;;;13.85;5.57;;;;;;;;;;4917794;29;20455;-82
2021/08/08 04:07:04;;;;;;;16.77;5.88;;;;;;;;;;4917539;29;20040;-83
2021/08/08 04:09:29;;;;;;;21.58;5.93;;;;;;;;;;4917519;29;20122;-83
2021/08/08 04:11:55;;;;;;;16.58;5.40;;;;;;;;;;4918573;29;20035;-82
2021/08/08 04:14:20;;;;;;;11.38;5.18;;;;;;;;;;4916800;29;20086;-82
2021/08/08 04:16:46;;;;;;;14.05;4.93;;;;;;;;;;4917691;29;20035;-81
2021/08/08 04:19:12;;;;;;;10.90;6.38;;;;;;;;;;4920031;29;20112;-82
2021/08/08 04:21:37;;;;;;;16.13;6.30;;;;;;;;;;4921335;29;20040;-80
2021/08/08 04:24:03;;;;;;;15.25;6.50;;;;;;;;;;4916715;29;20563;-81
2021/08/08 04:26:29;;;;;;;14.70;6.68;;;;;;;;;;4919517;29;20039;-82
2021/08/08 04:28:55;;;;;;;14.02;7.45;;;;;;;;;;4916863;29;20028;-83
2021/08/08 04:31:20;;;;;;;21.02;5.70;;;;;;;;;;4918615;29;20035;-81
2021/08/08 04:33:46;;;;;;;11.75;5.05;;;;;;;;;;4916688;29;20083;-82
2021/08/08 04:36:11;;;;;;;8.52;4.65;;;;;;;;;;4916749;29;20032;-82
2021/08/08 04:38:37;;;;;;;12.98;6.25;;;;;;;;;;4916638;29;20127;-82
2021/08/08 04:41:03;;;;;;;15.13;7.53;;;;;;;;;;4916538;29;20075;-82
2021/08/08 04:43:29;;;;;;;19.25;8.10;;;;;;;;;;4916649;29;20039;-83
2021/08/08 04:45:54;;;;;;;23.45;11.70;;;;;;;;;;4916629;29;20163;-82
2021/08/08 04:48:20;;;;;;;16.17;10.13;;;;;;;;;;4916413;29;20379;-82
2021/08/08 04:50:46;;;;;;;15.05;10.88;;;;;;;;;;4899480;29;20032;-82
2021/08/08 04:53:15;;;;;;;18.52;11.52;;;;;;;;;;4899216;29;20043;-82
2021/08/08 04:55:41;;;;;;;17.55;10.48;;;;;;;;;;4916520;29;20024;-82
2021/08/08 04:58:07;;;;;;;14.82;9.82;;;;;;;;;;4915960;29;20035;-84
2021/08/08 05:00:32;;;;;;;15.40;8.65;;;;;;;;;;4916448;29;20395;-83
2021/08/08 05:03:00;;;;;;;12.35;9.07;;;;;;;;;;4918337;29;20091;-81
2021/08/08 05:05:25;;;;;;;11.57;7.20;;;;;;;;;;4915924;29;20059;-84
2021/08/08 05:07:51;;;;;;;12.95;7.65;;;;;;;;;;4915811;29;21605;-83
2021/08/08 05:10:18;;;;;;;10.57;5.88;;;;;;;;;;4916017;29;20084;-82
2021/08/08 05:12:44;;;;;;;10.15;5.22;;;;;;;;;;4916386;29;20439;-82
2021/08/08 05:15:09;;;;;;;14.90;6.40;;;;;;;;;;4916103;29;20051;-82
2021/08/08 05:17:35;;;;;;;13.93;5.80;;;;;;;;;;4898994;29;20388;-83
2021/08/08 05:20:00;;;;;;;8.80;3.85;;;;;;;;;;4916048;29;20092;-83
2021/08/08 05:22:26;;;;;;;13.00;3.92;;;;;;;;;;4917378;29;20068;-83
2021/08/08 05:24:53;;;;;;;7.43;3.47;;;;;;;;;;4916060;29;20047;-83
2021/08/08 05:27:19;;;;;;;4.80;3.00;;;;;;;;;;4916167;29;20044;-83
2021/08/08 05:29:44;;;;;;;5.80;4.07;;;;;;;;;;4898846;29;20119;-84
2021/08/08 05:32:10;;;;;;;8.52;2.80;;;;;;;;;;4898716;29;20039;-83
2021/08/08 05:34:35;;;;;;;4.88;3.08;;;;;;;;;;4921230;29;20141;-83
2021/08/08 05:37:01;;;;;;;5.85;2.95;;;;;;;;;;4924491;29;20036;-82
2021/08/08 05:39:26;;;;;;;11.10;3.25;;;;;;;;;;4926882;29;20498;-83
2021/08/08 05:41:52;;;;;;;10.68;3.13;;;;;;;;;;4936920;29;20087;-83
2021/08/08 05:44:17;;;;;;;7.28;3.30;;;;;;;;;;4940708;29;20063;-83
2021/08/08 05:46:43;;;;;;;4.47;3.28;;;;;;;;;;4923759;29;20079;-83
2021/08/08 05:49:09;;;;;;;7.15;3.13;;;;;;;;;;4923789;29;20036;-83
2021/08/08 05:51:36;;;;;;;7.32;3.28;;;;;;;;;;4904660;29;20447;-82
2021/08/08 05:54:02;;;;;;;9.27;4.10;;;;;;;;;;4920780;29;20027;-86
2021/08/08 05:56:28;;;;;;;10.48;3.50;;;;;;;;;;4921608;29;20031;-83
2021/08/08 05:58:53;;;;;;;5.20;3.15;;;;;;;;;;4916687;29;20044;-84
2021/08/08 06:01:19;;;;;;;9.25;2.97;;;;;;;;;;4915642;29;20106;-84
2021/08/08 06:03:44;;;;;;;7.00;2.88;;;;;;;;;;4898865;29;20443;-84
2021/08/08 06:06:10;;;;;;;5.45;3.20;;;;;;;;;;4920498;29;20031;-83
2021/08/08 06:08:36;;;;;;;8.48;3.20;;;;;;;;;;4916230;29;20040;-84
2021/08/08 06:11:01;;;;;;;5.20;2.90;;;;;;;;;;4916178;29;20427;-83
2021/08/08 06:13:27;;;;;;;10.57;3.17;;;;;;;;;;4915129;29;20042;-82
2021/08/08 06:15:52;;;;;;;8.10;3.00;;;;;;;;;;4915813;29;20111;-83
2021/08/08 06:18:18;;;;;;;12.55;3.75;;;;;;;;;;4898738;29;20131;-83
2021/08/08 06:20:43;;;;;;;5.82;2.83;;;;;;;;;;4915963;29;20512;-83
2021/08/08 06:23:09;;;;;;;9.50;3.30;;;;;;;;;;4915848;29;20562;-82
2021/08/08 06:25:34;;;;;;;7.18;2.60;;;;;;;;;;4915171;29;20032;-81
2021/08/08 06:28:00;;;;;;;12.30;3.70;;;;;;;;;;4915896;29;20040;-82
2021/08/08 06:30:25;;;;;;;9.13;3.75;;;;;;;;;;4915802;29;20519;-81
2021/08/08 06:32:51;;;;;;;12.13;3.42;;;;;;;;;;4922659;29;20382;-83
2021/08/08 06:35:17;;;;;;;11.82;4.05;;;;;;;;;;4918110;29;20040;-83
2021/08/08 06:37:44;;;;;;;10.77;3.72;;;;;;;;;;4917951;29;20511;-83
2021/08/08 06:40:10;;;;;;;12.00;5.03;;;;;;;;;;4912564;29;20031;-83
2021/08/08 06:42:35;;;;;;;15.13;5.22;;;;;;;;;;4915213;29;20162;-83
2021/08/08 06:45:01;;;;;;;12.13;4.82;;;;;;;;;;4917565;29;20487;-83
2021/08/08 06:47:27;;;;;;;14.00;4.68;;;;;;;;;;4918717;29;20059;-84
2021/08/08 06:49:52;;;;;;;12.23;4.75;;;;;;;;;;4903466;29;20460;-83
2021/08/08 06:52:18;;;;;;;9.25;4.70;;;;;;;;;;4920171;29;20040;-84
2021/08/08 06:54:43;;;;;;;11.40;4.75;;;;;;;;;;4933214;29;20120;-84
2021/08/08 06:57:09;;;;;;;8.38;4.13;;;;;;;;;;4902808;29;20028;-84
2021/08/08 06:59:38;;;;;;;12.15;4.07;;;;;;;;;;4919396;29;20095;-84
2021/08/08 07:02:04;;;;;;;13.20;4.45;;;;;;;;;;4920574;29;20048;-83
2021/08/08 07:04:29;;;;;;;13.57;4.55;;;;;;;;;;4919059;29;20059;-86
2021/08/08 07:06:55;;;;;;;15.05;5.35;;;;;;;;;;4918736;29;20028;-83
2021/08/08 07:09:20;;;;;;;9.48;4.97;;;;;;;;;;4919585;29;20080;-83
2021/08/08 07:11:46;;;;;;;13.90;4.82;;;;;;;;;;4918093;29;20171;-83
2021/08/08 07:14:11;;;;;;;12.60;5.22;;;;;;;;;;4918428;29;20039;-85
2021/08/08 07:16:37;;;;;;;13.27;4.45;;;;;;;;;;4917952;29;20028;-84
2021/08/08 07:19:03;;;;;;;7.43;4.13;;;;;;;;;;4918185;29;20452;-82
2021/08/08 07:21:28;;;;;;;10.75;4.07;;;;;;;;;;4919565;29;20067;-82
2021/08/08 07:23:54;;;;;;;6.25;4.20;;;;;;;;;;4922810;29;20515;-81
2021/08/08 07:26:20;;;;;;;7.97;3.75;;;;;;;;;;4917950;29;20135;-82
2021/08/08 07:28:46;;;;;;;9.05;3.70;;;;;;;;;;4917865;29;20040;-84
2021/08/08 07:31:12;;;;;;;9.15;4.25;;;;;;;;;;4918284;29;20063;-81
2021/08/08 07:33:38;;;;;;;10.02;4.63;;;;;;;;;;4918189;29;20075;-82
2021/08/08 07:36:03;;;;;;;9.60;4.32;;;;;;;;;;4916899;29;20064;-83
2021/08/08 07:38:29;;;;;;;10.23;4.03;;;;;;;;;;4918147;29;20027;-82
2021/08/08 07:40:55;;;;;;;9.43;4.40;;;;;;;;;;4900812;29;20462;-83
2021/08/08 07:43:20;;;;;;;10.45;4.80;;;;;;;;;;4917377;29;20068;-82
2021/08/08 07:45:46;;;;;;;13.85;5.00;;;;;;;;;;4917846;29;20067;-83
2021/08/08 07:48:11;;;;;;;13.55;4.45;;;;;;;;;;4917245;29;20072;-82
2021/08/08 07:50:37;;;;;;;10.25;3.90;;;;;;;;;;4917300;29;20455;-82
2021/08/08 07:53:02;;;;;;;15.70;4.57;;;;;;;;;;4915394;29;20040;-82
2021/08/08 07:55:28;;;;;;;7.55;4.72;;;;;;;;;;4916567;29;20032;-84
2021/08/08 07:57:53;;;;;;;11.98;4.43;;;;;;;;;;4917665;29;20046;-81
2021/08/08 08:00:19;;;;;;;9.68;3.90;;;;;;;;;;4917820;29;20475;-84
2021/08/08 08:02:45;;;;;;;12.52;4.35;;;;;;;;;;4918602;29;20539;-85
2021/08/08 08:05:10;;;;;;;8.30;4.63;;;;;;;;;;4916694;29;20044;-85
2021/08/08 08:07:36;;;;;;;10.73;4.57;;;;;;;;;;4919744;29;20055;-84
2021/08/08 08:10:02;;;;;;;11.55;4.53;;;;;;;;;;4916767;29;20028;-83
2021/08/08 08:12:27;;;;;;;10.90;4.38;;;;;;;;;;4910629;29;20043;-83
2021/08/08 08:14:53;;;;;;;12.18;4.40;;;;;;;;;;4918586;29;20111;-84
2021/08/08 08:17:18;;;;;;;8.15;4.00;;;;;;;;;;4917964;29;20179;-85
2021/08/08 08:19:45;;;;;;;9.93;3.55;;;;;;;;;;4907109;29;20032;-85
2021/08/08 08:22:15;;;;;;;9.80;4.20;;;;;;;;;;4921024;29;20040;-84
2021/08/08 08:24:41;;;;;;;11.90;3.75;;;;;;;;;;4917746;29;20112;-82
2021/08/08 08:27:07;;;;;;;7.45;3.60;;;;;;;;;;4916817;29;20130;-85
2021/08/08 08:29:33;;;;;;;5.50;3.38;;;;;;;;;;4916918;29;20440;-85
2021/08/08 08:31:58;;;;;;;12.95;3.63;;;;;;;;;;4916960;29;20060;-85
2021/08/08 08:34:24;;;;;;;9.63;3.85;;;;;;;;;;4916092;29;20052;-86
2021/08/08 08:36:50;;;;;;;9.05;3.53;;;;;;;;;;4916723;29;20036;-85
2021/08/08 08:39:15;;;;;;;5.90;3.28;;;;;;;;;;4916337;29;20032;-86
2021/08/08 08:41:41;;;;;;;9.70;3.42;;;;;;;;;;4916554;29;20028;-87
2021/08/08 08:44:07;;;;;;;8.55;4.13;;;;;;;;;;4916235;29;20091;-86
2021/08/08 08:46:34;;;;;;;8.80;4.32;;;;;;;;;;4916679;29;20023;-85
2021/08/08 08:49:00;;;;;;;5.95;3.50;;;;;;;;;;4899586;29;20031;-86
2021/08/08 08:51:31;;;;;;;8.30;3.63;;;;;;;;;;4917791;29;20558;-87
2021/08/08 08:53:57;;;;;;;13.82;3.55;;;;;;;;;;4919095;29;20495;-93
2021/08/08 08:56:24;;;;;;;9.27;3.88;;;;;;;;;;4930179;29;20060;-90
2021/08/08 08:58:50;;;;;;;8.80;3.72;;;;;;;;;;4910636;29;20035;-92
2021/08/08 09:01:15;;;;;;;9.02;3.67;;;;;;;;;;4928841;29;20028;-90
2021/08/08 09:03:43;;;;;;;8.50;3.58;;;;;;;;;;4940040;28;20079;-89
2021/08/08 09:06:09;;;;;;;10.80;3.83;;;;;;;;;;4924684;29;20012;-91
2021/08/08 09:08:34;;;;;;;12.68;3.70;;;;;;;;;;4918505;29;20100;-90
2021/08/08 09:11:04;;;;;;;8.40;3.28;;;;;;;;;;4906116;29;20380;-89
2021/08/08 09:13:29;;;;;;;5.35;3.22;;;;;;;;;;4930213;29;20042;-90
2021/08/08 09:15:55;;;;;;;9.63;3.40;;;;;;;;;;4937242;29;20008;-88
2021/08/08 09:18:21;;;;;;;8.75;3.22;;;;;;;;;;4918165;29;20087;-89
2021/08/08 09:20:48;;;;;;;5.60;3.42;;;;;;;;;;4911559;29;20054;-91
2021/08/08 09:23:14;;;;;;;6.15;2.75;;;;;;;;;;4928379;29;20150;-89
2021/08/08 09:25:50;;;;;;;6.28;2.55;;;;;;;;;;4926647;29;20036;-91
2021/08/08 09:28:17;;;;;;;5.13;2.80;;;;;;;;;;4923023;29;20040;-85
2021/08/08 09:30:43;;;;;;;7.38;2.80;;;;;;;;;;4916787;29;20072;-85
2021/08/08 09:33:10;;;;;;;10.60;2.78;;;;;;;;;;4898997;29;20119;-85
2021/08/08 09:35:38;;;;;;;9.55;2.88;;;;;;;;;;4915605;29;20032;-84
2021/08/08 09:38:07;;;;;;;6.80;2.45;;;;;;;;;;4898211;29;20031;-84
2021/08/08 09:40:33;;;;;;;4.47;2.58;;;;;;;;;;4901317;29;20124;-86
2021/08/08 09:42:58;;;;;;;7.35;2.63;;;;;;;;;;4913769;29;20064;-88
2021/08/08 09:45:37;;;;;;;5.47;2.58;;;;;;;;;;4900233;29;20040;-87
2021/08/08 09:48:04;;;;;;;8.35;2.42;;;;;;;;;;4919189;29;20554;-83
2021/08/08 09:50:30;;;;;;;5.38;2.33;;;;;;;;;;4916495;29;20087;-83
2021/08/08 09:52:56;;;;;;;8.02;2.38;;;;;;;;;;4915968;29;20036;-84
2021/08/08 09:55:27;;;;;;;5.05;2.05;;;;;;;;;;4915107;29;20461;-84
2021/08/08 09:57:53;;;;;;;10.20;2.22;;;;;;;;;;4915893;29;20038;-83
2021/08/08 10:00:27;;;;;;;4.63;2.47;;;;;;;;;;4899560;29;20035;-82
2021/08/08 10:02:54;;;;;;;4.03;2.20;;;;;;;;;;4915570;29;20047;-82
2021/08/08 10:05:21;;;;;;;4.25;2.13;;;;;;;;;;4915573;29;20304;-82
2021/08/08 10:07:47;;;;;;;6.28;2.30;;;;;;;;;;4916396;29;20039;-79
2021/08/08 10:10:13;;;;;;;4.13;2.30;;;;;;;;;;4916219;29;20057;-84
2021/08/08 10:12:38;;;;;;;5.38;2.00;;;;;;;;;;4898744;29;20499;-84
2021/08/08 10:15:04;;;;;;;9.45;2.75;;;;;;;;;;4915514;29;20522;-83
2021/08/08 10:17:32;;;;;;;9.77;2.22;;;;;;;;;;4918262;29;20028;-84
2021/08/08 10:19:58;;;;;;;3.80;2.10;;;;;;;;;;4918385;29;20032;-86
2021/08/08 10:22:25;;;;;;;4.00;1.70;;;;;;;;;;4919819;29;20088;-86
2021/08/08 10:24:55;;;;;;;9.18;2.40;;;;;;;;;;4923230;29;20027;-84
2021/08/08 10:27:31;;;;;;;6.20;2.33;;;;;;;;;;4919173;29;20566;-83
2021/08/08 10:29:58;;;;;;;9.48;2.20;;;;;;;;;;4918800;29;20023;-83
2021/08/08 10:32:25;;;;;;;8.75;2.15;;;;;;;;;;4924345;29;20063;-85
2021/08/08 10:34:50;;;;;;;6.32;2.00;;;;;;;;;;4919538;29;20080;-85
2021/08/08 10:37:16;;;;;;;9.40;2.10;;;;;;;;;;4919064;29;20032;-85
2021/08/08 10:39:42;;;;;;;5.55;2.00;;;;;;;;;;4901479;29;20028;-85
2021/08/08 10:42:08;;;;;;;7.05;2.13;;;;;;;;;;4922094;29;20122;-85
2021/08/08 10:44:47;;;;;;;4.80;2.28;;;;;;;;;;4918186;29;20028;-84
2021/08/08 10:47:23;;;;;;;4.47;2.00;;;;;;;;;;4919006;29;20032;-84
2021/08/08 10:49:49;;;;;;;5.40;2.30;;;;;;;;;;4902133;29;20048;-85
2021/08/08 10:52:15;;;;;;;3.65;2.05;;;;;;;;;;4919620;29;20036;-86
2021/08/08 10:54:41;;;;;;;6.15;2.15;;;;;;;;;;4919689;29;20043;-86
2021/08/08 10:57:11;;;;;;;5.45;2.47;;;;;;;;;;4920022;29;20032;-85
2021/08/08 10:59:41;;;;;;;11.25;2.45;;;;;;;;;;4920157;29;20076;-87
2021/08/08 11:02:15;;;;;;;7.18;2.40;;;;;;;;;;4912487;29;20036;-86
2021/08/08 11:04:40;;;;;;;10.13;2.55;;;;;;;;;;4919561;29;20039;-87
2021/08/08 11:07:06;;;;;;;11.80;3.10;;;;;;;;;;4918720;29;20439;-86
2021/08/08 11:09:33;;;;;;;9.82;2.85;;;;;;;;;;4920854;29;20035;-86
2021/08/08 11:11:59;;;;;;;5.95;2.90;;;;;;;;;;4912845;29;20028;-86
2021/08/08 11:14:26;;;;;;;7.35;2.65;;;;;;;;;;4908310;29;20040;-87
2021/08/08 11:17:04;;;;;;;6.90;2.67;;;;;;;;;;4927928;29;20067;-85
2021/08/08 11:19:31;;;;;;;9.15;3.15;;;;;;;;;;4925364;29;20059;-86
2021/08/08 11:22:04;;;;;;;6.70;3.50;;;;;;;;;;4906810;29;20091;-86
2021/08/08 11:24:29;;;;;;;7.05;3.40;;;;;;;;;;4933207;29;20020;-86
2021/08/08 11:26:55;;;;;;;10.18;3.72;;;;;;;;;;4939903;29;20051;-86
2021/08/08 11:29:21;;;;;;;9.15;3.95;;;;;;;;;;4939768;29;20020;-84
2021/08/08 11:31:46;;;;;;;21.05;4.82;;;;;;;;;;4929655;29;20038;-86
2021/08/08 11:34:15;;;;;;;12.95;4.05;;;;;;;;;;4926381;29;20052;-84
2021/08/08 11:36:41;;;;;;;12.75;4.85;;;;;;;;;;4924255;29;20035;-86
2021/08/08 11:39:08;;;;;;;15.95;6.80;;;;;;;;;;4920677;29;20055;-85
2021/08/08 11:41:34;;;;;;;16.10;7.30;;;;;;;;;;4924277;29;20035;-86
2021/08/08 11:44:07;;;;;;;14.52;8.43;;;;;;;;;;4922928;29;20043;-86
2021/08/08 11:46:33;;;;;;;16.58;8.25;;;;;;;;;;4906684;29;20040;-85
2021/08/08 11:48:59;;;;;;;26.02;9.90;;;;;;;;;;4921649;29;20044;-85
2021/08/08 11:51:26;;;;;;;21.35;9.70;;;;;;;;;;4931110;29;20052;-86
2021/08/08 11:53:55;;;;;;;15.32;8.90;;;;;;;;;;4920627;29;20071;-86
2021/08/08 11:56:22;;;;;;;16.00;9.13;;;;;;;;;;4927558;29;20040;-86
2021/08/08 11:58:50;;;;;;;10.90;9.15;;;;;;;;;;4931784;29;20039;-87
2021/08/08 12:01:19;;;;;;;12.98;9.00;;;;;;;;;;4929053;29;20036;-87
2021/08/08 12:03:45;;;;;;;19.77;8.95;;;;;;;;;;4920405;29;20126;-88
2021/08/08 12:06:12;;;;;;;17.73;9.10;;;;;;;;;;4920106;29;20048;-87
2021/08/08 12:08:37;;;;;;;17.50;7.85;;;;;;;;;;4905628;29;20035;-88
2021/08/08 12:11:03;;;;;;;17.95;7.72;;;;;;;;;;4920052;29;20048;-87
2021/08/08 12:13:29;;;;;;;22.42;8.32;;;;;;;;;;4926806;29;20119;-87
2021/08/08 12:15:54;;;;;;;19.42;8.30;;;;;;;;;;4927709;29;20024;-87
2021/08/08 12:18:26;;;;;;;13.32;7.63;;;;;;;;;;4926042;29;20032;-86
2021/08/08 12:20:52;;;;;;;17.05;8.40;;;;;;;;;;4921060;29;20459;-84
2021/08/08 12:23:22;;;;;;;17.15;8.57;;;;;;;;;;4921851;29;20032;-84
2021/08/08 12:25:57;;;;;;;15.15;8.90;;;;;;;;;;4919798;29;20024;-82
2021/08/08 12:28:23;;;;;;;20.95;8.82;;;;;;;;;;4917513;29;20126;-83
2021/08/08 12:30:49;;;;;;;19.52;9.55;;;;;;;;;;4917844;29;20520;-84
2021/08/08 12:33:16;;;;;;;21.65;9.27;;;;;;;;;;4917381;29;20088;-85
2021/08/08 12:35:42;;;;;;;15.23;9.27;;;;;;;;;;4917567;29;20116;-85
2021/08/08 12:38:17;;;;;;;15.27;9.30;;;;;;;;;;4918744;29;20024;-86
2021/08/08 12:40:46;;;;;;;19.40;9.65;;;;;;;;;;4925196;29;20399;-86
2021/08/08 12:43:16;;;;;;;18.10;9.90;;;;;;;;;;4917444;29;20035;-84
2021/08/08 12:45:41;;;;;;;13.30;8.40;;;;;;;;;;4917697;29;20031;-82
2021/08/08 12:48:07;;;;;;;15.10;9.27;;;;;;;;;;4920550;29;20086;-84
2021/08/08 12:50:40;;;;;;;12.15;8.60;;;;;;;;;;4921744;29;20039;-83
2021/08/08 12:53:08;;;;;;;21.02;8.63;;;;;;;;;;4920458;29;20094;-83
2021/08/08 12:55:34;;;;;;;34.50;9.98;;;;;;;;;;4922541;29;20027;-84
2021/08/08 12:58:00;;;;;;;17.35;9.27;;;;;;;;;;4917899;29;20119;-85
2021/08/08 13:00:25;;;;;;;24.92;9.35;;;;;;;;;;4923084;29;20027;-85
2021/08/08 13:02:52;;;;;;;26.05;9.00;;;;;;;;;;4916480;29;20032;-84
2021/08/08 13:05:18;;;;;;;14.77;10.02;;;;;;;;;;4917366;29;20348;-85
2021/08/08 13:07:44;;;;;;;13.82;8.10;;;;;;;;;;4912205;29;20047;-84
2021/08/08 13:10:10;;;;;;;18.15;8.60;;;;;;;;;;4916421;29;20038;-85
2021/08/08 13:12:39;;;;;;;12.20;8.43;;;;;;;;;;4916571;29;20032;-86
2021/08/08 13:15:09;;;;;;;19.17;7.80;;;;;;;;;;4899750;29;20027;-85
2021/08/08 13:17:36;;;;;;;18.55;7.80;;;;;;;;;;4898768;29;20036;-84
2021/08/08 13:20:01;;;;;;;15.43;8.18;;;;;;;;;;4918617;29;20507;-86
2021/08/08 13:22:27;;;;;;;14.18;7.90;;;;;;;;;;4920620;29;20109;-85
2021/08/08 13:24:52;;;;;;;17.13;7.20;;;;;;;;;;4916861;29;20055;-85
2021/08/08 13:27:18;;;;;;;13.30;6.28;;;;;;;;;;4922095;29;20519;-84
2021/08/08 13:29:43;;;;;;;14.77;5.97;;;;;;;;;;4921828;29;20094;-87
2021/08/08 13:32:09;;;;;;;12.75;6.15;;;;;;;;;;4906705;29;20569;-84
2021/08/08 13:34:34;;;;;;;12.13;5.43;;;;;;;;;;4924060;29;20098;-84
2021/08/08 13:37:00;;;;;;;9.90;4.47;;;;;;;;;;4924850;29;20179;-84
2021/08/08 13:39:25;;;;;;;8.77;3.72;;;;;;;;;;4922207;29;20031;-84
2021/08/08 13:41:51;;;;;;;10.98;4.75;;;;;;;;;;4916770;29;20058;-83
2021/08/08 13:44:17;;;;;;;8.13;3.70;;;;;;;;;;4915792;29;20134;-83
2021/08/08 13:46:43;;;;;;;6.50;3.58;;;;;;;;;;4916129;29;20477;-86
2021/08/08 13:49:08;;;;;;;7.43;3.40;;;;;;;;;;4915447;29;20040;-84
2021/08/08 13:51:34;;;;;;;9.93;3.35;;;;;;;;;;4915712;29;20028;-84
2021/08/08 13:54:00;;;;;;;7.07;3.38;;;;;;;;;;4917814;29;20047;-85
2021/08/08 13:56:26;;;;;;;6.57;2.30;;;;;;;;;;4919342;29;20048;-83
2021/08/08 13:58:52;;;;;;;6.28;2.60;;;;;;;;;;4919426;29;20051;-85
2021/08/08 14:01:18;;;;;;;10.43;2.70;;;;;;;;;;4919184;29;20118;-84
2021/08/08 14:03:44;;;;;;;6.70;2.70;;;;;;;;;;4911529;29;20024;-85
2021/08/08 14:06:10;;;;;;;8.85;3.65;;;;;;;;;;4919561;29;20502;-83
2021/08/08 14:08:35;;;;;;;7.50;3.75;;;;;;;;;;4920123;29;20052;-84
2021/08/08 14:11:02;;;;;;;9.23;3.78;;;;;;;;;;4919256;29;20123;-84
2021/08/08 14:13:28;;;;;;;8.35;3.67;;;;;;;;;;4919356;29;20530;-83
2021/08/08 14:15:53;;;;;;;6.47;3.95;;;;;;;;;;4919467;29;20028;-83
2021/08/08 14:18:19;;;;;;;8.82;4.63;;;;;;;;;;4919425;29;20513;-84
2021/08/08 14:20:44;;;;;;;7.25;4.15;;;;;;;;;;4918536;29;20071;-85
2021/08/08 14:23:10;;;;;;;12.38;3.63;;;;;;;;;;4918618;29;20040;-84
2021/08/08 14:25:35;;;;;;;7.65;3.00;;;;;;;;;;4925348;29;20155;-84
2021/08/08 14:28:01;;;;;;;7.32;3.83;;;;;;;;;;4925095;29;20410;-84
2021/08/08 14:30:26;;;;;;;9.98;3.67;;;;;;;;;;4921443;29;20036;-85